createdAt,value
2023-04-25T03:24:40.516Z,5.70
2023-04-25T03:27:07.581Z,5.60
2023-04-25T03:29:34.879Z,5.60
2023-04-25T03:32:02.089Z,5.60
2023-04-25T03:34:29.484Z,5.60
2023-04-25T03:36:56.832Z,5.60
2023-04-25T03:39:23.651Z,5.80
2023-04-25T03:41:50.755Z,5.80
2023-04-25T03:44:17.907Z,5.80
2023-04-25T03:46:45.195Z,5.80
2023-04-25T03:49:12.097Z,5.90
2023-04-25T03:51:39.179Z,5.90
2023-04-25T03:54:06.059Z,5.90
2023-04-25T03:56:32.839Z,5.80
2023-04-25T03:59:00.048Z,5.80
2023-04-25T04:01:27.021Z,5.80
2023-04-25T04:03:54.735Z,5.90
2023-04-25T04:06:22.202Z,5.90
2023-04-25T04:08:49.115Z,5.90
2023-04-25T04:11:16.260Z,5.90
2023-04-25T04:13:43.429Z,6.00
2023-04-25T04:16:11.065Z,6.00
2023-04-25T04:18:38.127Z,6.00
2023-04-25T04:21:05.346Z,6.10
2023-04-25T04:23:32.383Z,6.10
2023-04-25T04:25:59.660Z,6.10
2023-04-25T04:28:27.858Z,6.10
2023-04-25T04:30:54.984Z,6.00
2023-04-25T04:33:22.370Z,6.20
2023-04-25T04:35:49.607Z,6.10
2023-04-25T04:38:16.836Z,6.20
2023-04-25T04:40:44.195Z,6.20
2023-04-25T04:43:11.453Z,6.20
2023-04-25T04:45:41.485Z,6.20
2023-04-25T04:48:08.437Z,6.30
2023-04-25T04:50:37.586Z,6.30
2023-04-25T04:53:05.904Z,6.20
2023-04-25T04:55:32.711Z,6.20
2023-04-25T04:57:59.741Z,6.30
2023-04-25T05:00:29.705Z,6.30
2023-04-25T05:02:58.279Z,6.40
2023-04-25T05:05:27.565Z,6.30
2023-04-25T05:07:54.744Z,6.40
2023-04-25T05:10:21.798Z,6.30
2023-04-25T05:12:50.186Z,6.40
2023-04-25T05:15:17.908Z,6.30
2023-04-25T05:17:44.772Z,6.40
2023-04-25T05:20:11.896Z,6.40
2023-04-25T05:22:39.147Z,6.50
2023-04-25T05:25:06.563Z,6.40
2023-04-25T05:27:33.605Z,6.40
2023-04-25T05:30:01.225Z,6.40
2023-04-25T05:32:28.617Z,6.50
2023-04-25T05:34:55.646Z,6.50
2023-04-25T05:37:23.768Z,6.50
2023-04-25T05:39:50.723Z,6.50
2023-04-25T05:42:18.173Z,6.50
2023-04-25T05:44:45.518Z,6.50
2023-04-25T05:47:12.372Z,6.50
2023-04-25T05:49:39.669Z,6.60
2023-04-25T05:52:06.616Z,6.60
2023-04-25T05:54:35.984Z,6.60
2023-04-25T05:57:03.944Z,6.60
2023-04-25T05:59:30.858Z,6.60
2023-04-25T06:01:57.830Z,6.70
2023-04-25T06:04:26.640Z,6.80
2023-04-25T06:06:53.708Z,6.80
2023-04-25T06:09:20.880Z,6.90
2023-04-25T06:11:48.080Z,6.80
2023-04-25T06:14:16.945Z,6.90
2023-04-25T06:16:43.760Z,7.00
2023-04-25T06:19:10.809Z,7.10
2023-04-25T06:21:37.959Z,7.10
2023-04-25T06:24:05.941Z,7.00
2023-04-25T06:26:32.997Z,7.30
2023-04-25T06:28:59.987Z,7.40
2023-04-25T06:31:27.105Z,7.30
2023-04-25T06:33:56.097Z,7.40
2023-04-25T06:36:27.184Z,7.50
2023-04-25T06:38:54.475Z,7.40
2023-04-25T06:41:21.984Z,7.10
2023-04-25T06:43:48.998Z,7.30
2023-04-25T06:46:16.380Z,7.20
2023-04-25T06:48:43.334Z,7.40
2023-04-25T06:51:13.084Z,7.50
2023-04-25T06:53:40.871Z,7.50
2023-04-25T06:56:07.747Z,7.50
2023-04-25T06:58:34.639Z,7.50
2023-04-25T07:01:01.669Z,7.90
2023-04-25T07:03:28.630Z,8.00
2023-04-25T07:05:56.103Z,8.10
2023-04-25T07:08:22.997Z,8.20
2023-04-25T07:10:50.268Z,8.20
2023-04-25T07:13:17.106Z,8.30
2023-04-25T07:15:45.079Z,8.40
2023-04-25T07:18:12.721Z,8.30
2023-04-25T07:20:39.999Z,8.20
2023-04-25T07:23:06.775Z,8.00
2023-04-25T07:25:33.884Z,8.20
2023-04-25T07:28:01.111Z,8.20
2023-04-25T07:30:28.609Z,8.60
2023-04-25T07:32:55.723Z,8.70
2023-04-25T07:35:22.590Z,8.90
2023-04-25T07:37:49.754Z,8.90
2023-04-25T07:40:17.628Z,8.90
2023-04-25T07:42:44.866Z,8.80
2023-04-25T07:45:12.134Z,8.80
2023-04-25T07:47:39.626Z,8.40
2023-04-25T07:50:07.227Z,8.60
2023-04-25T07:52:33.951Z,8.50
2023-04-25T07:55:03.969Z,8.60
2023-04-25T07:57:31.340Z,8.70
2023-04-25T07:59:58.613Z,9.00
2023-04-25T08:02:27.511Z,9.10
2023-04-25T08:04:54.438Z,9.20
2023-04-25T08:07:21.759Z,9.40
2023-04-25T08:09:48.627Z,9.40
2023-04-25T08:12:15.805Z,9.60
2023-04-25T08:14:42.601Z,9.50
2023-04-25T08:17:10.238Z,9.20
2023-04-25T08:19:37.367Z,9.20
2023-04-25T08:22:04.549Z,9.00
2023-04-25T08:24:31.736Z,8.80
2023-04-25T08:27:00.038Z,8.90
2023-04-25T08:29:27.359Z,9.00
2023-04-25T08:31:54.183Z,9.10
2023-04-25T08:34:21.685Z,8.90
2023-04-25T08:36:48.621Z,8.80
2023-04-25T08:39:15.503Z,8.80
2023-04-25T08:41:42.844Z,8.70
2023-04-25T08:44:12.137Z,8.70
2023-04-25T08:46:42.663Z,8.60
2023-04-25T08:49:10.749Z,8.60
2023-04-25T08:51:45.112Z,8.70
2023-04-25T08:54:30.930Z,8.70
2023-04-25T08:57:05.729Z,8.70
2023-04-25T08:59:33.950Z,9.00
2023-04-25T09:02:02.045Z,8.90
2023-04-25T09:04:31.892Z,9.10
2023-04-25T09:06:59.596Z,9.40
2023-04-25T09:09:30.553Z,9.50
2023-04-25T09:11:58.351Z,9.60
2023-04-25T09:14:27.094Z,10.00
2023-04-25T09:16:56.846Z,9.70
2023-04-25T09:19:38.720Z,10.00
2023-04-25T09:22:07.044Z,10.10
2023-04-25T09:24:52.417Z,10.00
2023-04-25T09:27:21.850Z,10.00
2023-04-25T09:29:49.043Z,10.20
2023-04-25T09:32:24.508Z,10.00
2023-04-25T09:35:01.671Z,10.00
2023-04-25T09:37:30.931Z,9.60
2023-04-25T09:40:04.416Z,9.20
2023-04-25T09:42:33.017Z,9.00
2023-04-25T09:45:02.991Z,9.00
2023-04-25T09:47:31.006Z,9.30
2023-04-25T09:49:58.378Z,9.50
2023-04-25T09:52:26.412Z,9.50
2023-04-25T09:54:53.717Z,9.70
2023-04-25T09:57:25.013Z,10.00
2023-04-25T09:59:56.488Z,10.30
2023-04-25T10:02:27.181Z,10.50
2023-04-25T10:04:57.785Z,10.60
2023-04-25T10:07:29.499Z,10.70
2023-04-25T10:10:01.552Z,10.60
2023-04-25T10:12:28.922Z,10.70
2023-04-25T10:14:58.300Z,10.60
2023-04-25T10:17:25.465Z,10.30
2023-04-25T10:19:53.160Z,10.40
2023-04-25T10:22:30.120Z,10.40
2023-04-25T10:24:57.816Z,10.50
2023-04-25T10:27:25.007Z,10.30
2023-04-25T10:30:20.100Z,10.30
2023-04-25T10:32:49.282Z,10.00
2023-04-25T10:35:25.194Z,10.30
2023-04-25T10:38:08.639Z,10.20
2023-04-25T10:40:35.520Z,10.40
2023-04-25T10:43:57.669Z,10.10
2023-04-25T10:46:27.714Z,9.90
2023-04-25T10:49:05.223Z,10.40
2023-04-25T10:51:54.251Z,10.30
2023-04-25T10:54:24.224Z,9.80
2023-04-25T10:56:53.157Z,9.80
2023-04-25T10:59:22.514Z,9.60
2023-04-25T11:01:54.489Z,9.50
2023-04-25T11:04:25.338Z,9.60
2023-04-25T11:07:30.346Z,9.60
2023-04-25T11:10:02.385Z,9.70
2023-04-25T11:12:33.080Z,9.80
2023-04-25T11:15:08.411Z,10.10
2023-04-25T11:17:37.132Z,10.80
2023-04-25T11:20:11.584Z,11.40
2023-04-25T11:22:42.088Z,11.90
2023-04-25T11:25:10.653Z,11.70
2023-04-25T11:27:54.957Z,11.70
2023-04-25T11:30:23.193Z,11.20
2023-04-25T11:32:50.260Z,11.40
2023-04-25T11:35:17.689Z,11.50
2023-04-25T11:37:45.166Z,11.40
2023-04-25T11:40:12.828Z,10.90
2023-04-25T11:42:44.233Z,10.80
2023-04-25T11:45:11.811Z,10.40
2023-04-25T11:47:41.740Z,10.10
2023-04-25T11:50:09.905Z,9.80
2023-04-25T11:52:44.380Z,9.80
2023-04-25T11:55:19.788Z,9.70
2023-04-25T11:57:50.409Z,9.80
2023-04-25T12:00:22.380Z,9.70
2023-04-25T12:02:54.009Z,9.60
2023-04-25T12:05:32.087Z,9.80
2023-04-25T12:07:59.426Z,9.90
2023-04-25T12:10:27.779Z,9.90
2023-04-25T12:12:55.209Z,9.90
2023-04-25T12:15:27.292Z,10.00
2023-04-25T12:17:56.600Z,10.30
2023-04-25T12:20:26.922Z,10.40
2023-04-25T12:23:00.470Z,10.40
2023-04-25T12:25:40.637Z,10.50
2023-04-25T12:28:29.252Z,10.50
2023-04-25T12:30:57.685Z,10.70
2023-04-25T12:33:25.670Z,10.80
2023-04-25T12:35:53.695Z,10.70
2023-04-25T12:38:32.392Z,10.70
2023-04-25T12:40:59.746Z,10.60
2023-04-25T12:43:27.349Z,10.40
2023-04-25T12:45:55.626Z,10.20
2023-04-25T12:48:23.400Z,10.30
2023-04-25T12:50:52.799Z,10.40
2023-04-25T12:53:21.876Z,10.10
2023-04-25T12:55:49.682Z,11.00
2023-04-25T12:58:18.502Z,11.10
2023-04-25T13:00:46.070Z,11.60
2023-04-25T13:06:00.127Z,12.70
2023-04-25T13:08:27.452Z,12.30
2023-04-25T13:10:54.530Z,13.10
2023-04-25T13:13:21.469Z,13.30
2023-04-25T13:15:48.897Z,13.00
2023-04-25T13:18:18.250Z,12.70
2023-04-25T13:20:45.614Z,12.00
2023-04-25T13:23:12.827Z,11.60
2023-04-25T13:25:40.063Z,11.30
2023-04-25T13:28:07.341Z,10.90
2023-04-25T13:30:34.947Z,10.60
2023-04-25T13:33:04.322Z,10.70
2023-04-25T13:35:34.543Z,10.80
2023-04-25T13:38:03.472Z,10.90
2023-04-25T13:40:30.928Z,10.90
2023-04-25T13:42:58.031Z,10.80
2023-04-25T13:45:25.822Z,10.60
2023-04-25T13:47:52.806Z,10.40
2023-04-25T13:50:19.754Z,10.30
2023-04-25T13:52:47.005Z,10.10
2023-04-25T13:55:13.947Z,10.00
2023-04-25T13:57:43.038Z,10.10
2023-04-25T14:00:13.356Z,10.00
2023-04-25T14:02:40.353Z,10.00
2023-04-25T14:05:09.091Z,10.30
2023-04-25T14:07:38.536Z,10.30
2023-04-25T14:10:07.006Z,10.50
2023-04-25T14:12:34.455Z,10.60
2023-04-25T14:15:03.255Z,10.40
2023-04-25T14:17:30.491Z,10.30
2023-04-25T14:19:57.710Z,10.30
2023-04-25T14:22:24.692Z,10.50
2023-04-25T14:24:52.227Z,10.50
2023-04-25T14:27:20.921Z,10.50
2023-04-25T14:29:48.753Z,10.60
2023-04-25T14:32:17.125Z,10.80
2023-04-25T14:34:45.425Z,10.90
2023-04-25T14:37:12.270Z,10.60
2023-04-25T14:39:39.194Z,10.90
2023-04-25T14:42:06.235Z,11.20
2023-04-25T14:44:41.710Z,11.70
2023-04-25T14:47:09.829Z,13.30
2023-04-25T14:49:36.901Z,14.90
2023-04-25T14:52:06.744Z,15.30
2023-04-25T14:54:34.162Z,13.00
2023-04-25T14:57:02.717Z,12.60
2023-04-25T14:59:29.842Z,13.30
2023-04-25T15:01:59.774Z,12.30
2023-04-25T15:04:27.660Z,12.40
2023-04-25T15:06:55.169Z,11.70
2023-04-25T15:09:24.046Z,11.70
2023-04-25T15:11:52.135Z,11.60
2023-04-25T15:14:19.505Z,11.70
2023-04-25T15:16:47.119Z,11.50
2023-04-25T15:19:14.379Z,11.30
2023-04-25T15:21:41.502Z,11.10
2023-04-25T15:24:19.142Z,11.10
2023-04-25T15:26:47.369Z,11.20
2023-04-25T15:29:14.265Z,11.30
2023-04-25T15:31:41.344Z,11.40
2023-04-25T15:34:08.160Z,11.60
2023-04-25T15:36:35.105Z,12.00
2023-04-25T15:39:03.700Z,12.40
2023-04-25T15:41:30.853Z,11.90
2023-04-25T15:44:00.341Z,11.70
2023-04-25T15:46:27.511Z,11.90
2023-04-25T15:48:54.548Z,12.20
2023-04-25T15:51:21.729Z,13.30
2023-04-25T15:53:48.920Z,13.70
2023-04-25T15:56:16.021Z,13.20
2023-04-25T15:58:42.831Z,13.00
2023-04-25T16:01:09.872Z,13.00
2023-04-25T16:03:37.079Z,12.60
2023-04-25T16:06:04.686Z,12.30
2023-04-25T16:08:34.346Z,12.10
2023-04-25T16:11:02.094Z,12.10
2023-04-25T16:13:30.295Z,12.40
2023-04-25T16:15:57.737Z,13.00
2023-04-25T16:18:26.066Z,12.90
2023-04-25T16:20:52.964Z,13.30
2023-04-25T16:23:19.847Z,13.00
2023-04-25T16:25:47.071Z,13.10
2023-04-25T16:28:13.907Z,13.40
2023-04-25T16:30:41.305Z,13.20
2023-04-25T16:33:10.885Z,13.10
2023-04-25T16:35:37.737Z,13.10
2023-04-25T16:38:05.368Z,12.90
2023-04-25T16:40:32.154Z,12.60
2023-04-25T16:42:58.967Z,12.60
2023-04-25T16:45:27.194Z,12.60
2023-04-25T16:47:54.184Z,12.20
2023-04-25T16:50:21.241Z,12.50
2023-04-25T16:52:48.517Z,12.60
2023-04-25T16:55:15.621Z,13.00
2023-04-25T16:57:42.535Z,13.20
2023-04-25T17:00:10.080Z,12.50
2023-04-25T17:02:37.184Z,12.10
2023-04-25T17:05:05.636Z,11.80
2023-04-25T17:07:32.544Z,11.40
2023-04-25T17:10:00.114Z,11.20
2023-04-25T17:12:27.238Z,11.10
2023-04-25T17:14:54.854Z,11.00
2023-04-25T17:17:31.659Z,11.20
2023-04-25T17:19:58.669Z,11.80
2023-04-25T17:22:26.026Z,12.40
2023-04-25T17:24:52.917Z,12.10
2023-04-25T17:27:23.394Z,11.90
2023-04-25T17:29:50.263Z,11.50
2023-04-25T17:32:17.619Z,11.30
2023-04-25T17:34:46.158Z,11.10
2023-04-25T17:37:16.567Z,10.70
2023-04-25T17:39:43.857Z,10.60
2023-04-25T17:42:11.938Z,10.40
2023-04-25T17:44:39.604Z,10.30
2023-04-25T17:47:08.510Z,10.20
2023-04-25T17:49:36.471Z,10.10
2023-04-25T17:52:03.984Z,9.90
2023-04-25T17:54:31.006Z,9.70
2023-04-25T17:56:58.253Z,9.70
2023-04-25T17:59:25.194Z,9.70
2023-04-25T18:01:52.224Z,9.70
2023-04-25T18:04:19.178Z,9.60
2023-04-25T18:06:46.459Z,9.60
2023-04-25T18:09:17.198Z,9.50
2023-04-25T18:11:45.579Z,9.50
2023-04-25T18:14:14.608Z,9.40
2023-04-25T18:16:45.258Z,9.30
2023-04-25T18:19:15.590Z,9.40
2023-04-25T18:21:46.284Z,9.40
2023-04-25T18:24:13.704Z,9.30
2023-04-25T21:24:50.745Z,6.20
2023-04-25T21:27:18.049Z,6.30
2023-04-25T21:29:46.360Z,6.20
2023-04-25T21:32:23.530Z,6.30
2023-04-25T21:34:51.026Z,6.30
2023-04-25T21:37:19.938Z,6.30
2023-04-25T21:39:48.626Z,6.30
2023-04-25T21:42:15.677Z,6.40
2023-04-25T21:44:42.928Z,6.40
2023-04-25T21:47:10.190Z,6.30
2023-04-25T21:49:37.357Z,6.40
2023-04-25T21:52:07.612Z,6.40
2023-04-25T21:54:37.553Z,6.40
2023-04-25T21:57:04.864Z,6.40
2023-04-25T21:59:33.203Z,6.50
2023-04-25T22:02:00.423Z,6.40
2023-04-25T22:04:28.088Z,6.40
2023-04-25T22:06:58.381Z,6.50
2023-04-25T22:09:34.746Z,6.50
2023-04-25T22:12:08.497Z,6.50
2023-04-25T22:14:39.833Z,6.50
2023-04-25T22:17:07.553Z,6.50
2023-04-25T22:19:35.382Z,6.50
2023-04-25T22:22:02.872Z,6.60
2023-04-25T22:24:33.430Z,6.70
2023-04-25T22:27:05.346Z,6.60
2023-04-25T22:29:32.913Z,6.50
2023-04-25T22:32:00.099Z,6.50
2023-04-25T22:34:30.861Z,6.50
2023-04-25T22:36:58.698Z,6.40
2023-04-25T22:39:26.154Z,6.50
2023-04-25T22:41:54.571Z,6.40
2023-04-25T22:44:25.839Z,6.40
2023-04-25T22:47:03.417Z,6.30
2023-04-25T22:49:30.745Z,6.30
2023-04-25T22:52:01.951Z,6.30
2023-04-25T22:54:29.321Z,6.30
2023-04-25T22:57:01.954Z,6.20
2023-04-25T22:59:39.852Z,6.20
2023-04-25T23:02:08.941Z,6.20
2023-04-25T23:04:38.869Z,6.20
2023-04-25T23:07:09.499Z,6.20
2023-04-25T23:09:36.995Z,6.20
2023-04-25T23:12:05.330Z,6.10
2023-04-25T23:14:36.332Z,6.10
2023-04-25T23:17:03.744Z,6.10
2023-04-25T23:19:31.477Z,6.00
2023-04-25T23:22:05.482Z,6.00
2023-04-25T23:24:36.535Z,5.90
2023-04-25T23:27:03.833Z,5.80
2023-04-25T23:29:34.160Z,5.70
2023-04-25T23:32:02.437Z,5.70
2023-04-25T23:34:34.030Z,5.60
2023-04-25T23:37:01.866Z,5.60
2023-04-25T23:39:29.060Z,5.60
2023-04-25T23:41:57.104Z,5.50
2023-04-25T23:44:24.024Z,5.40
2023-04-25T23:46:51.899Z,5.50
2023-04-25T23:49:19.013Z,5.30
2023-04-25T23:51:46.550Z,5.30
2023-04-25T23:54:15.676Z,5.30
2023-04-25T23:56:42.529Z,5.30
2023-04-25T23:59:09.651Z,5.30
